Vernicos Master — SVA2352 — position and weather

sailwx.info

Track history (hours):
 
Tides and Currents Weather Stations Pressure Air Temp Water Temp Dewpoint Dewpoint Depression Visibility Wind Speed Wind Dir Waves Ship Positions

Vernicos Master

Last reported at 2018-Jan-18 17:30 UTC. Time now 2018-Jan-18 17:56 UTC.
Position N 37°56' E 023°38'.

Length 28 m; draft 3.8 m.

Type: Tug. MMSI: 240917000.

Date/timePositionNaut miles runAvg speedWind from/ knotsBaromVisibWave heightAir tempDewpointWater temp
2018-Jan-18 17:30N 37°56' E 023°38'0 0.0
2018-Jan-18 17:00N 37°56' E 023°38'0 0.3
2018-Jan-18 16:30N 37°56' E 023°38'0 0.0
2018-Jan-18 16:00N 37°56' E 023°38'0 0.0
2018-Jan-18 15:30N 37°56' E 023°38'0 0.0
2018-Jan-18 15:00N 37°56' E 023°38'0 0.0
2018-Jan-18 14:30N 37°56' E 023°38'0 0.0
2018-Jan-18 14:00N 37°56' E 023°38'0 0.0
2018-Jan-18 13:30N 37°56' E 023°38'0 0.0
2018-Jan-18 13:00N 37°56' E 023°38'0 0.0
2018-Jan-18 12:30N 37°56' E 023°38'0 0.0
2018-Jan-18 12:00N 37°56' E 023°38'1 1.2
2018-Jan-18 11:30N 37°56' E 023°37'2 3.6
2018-Jan-18 11:00N 37°57' E 023°35'1 2.3
2018-Jan-18 10:30N 37°57' E 023°37'0 0.0
2018-Jan-18 10:00N 37°57' E 023°37'0 0.0
2018-Jan-18 09:30N 37°57' E 023°37'0 0.3
2018-Jan-18 09:00N 37°57' E 023°36'1 1.9
2018-Jan-18 08:31N 37°57' E 023°35'1 2.6
2018-Jan-18 08:00N 37°56' E 023°35'1 2.9
2018-Jan-18 07:30N 37°57' E 023°36'1 1.0
2018-Jan-18 07:00N 37°57' E 023°35'0 0.1
2018-Jan-18 06:30N 37°57' E 023°35'2 4.2
2018-Jan-18 06:00N 37°56' E 023°38'0 0.5
2018-Jan-18 05:30N 37°56' E 023°38'0 0.0
2018-Jan-18 05:00N 37°56' E 023°38'0 0.0
2018-Jan-18 04:30N 37°56' E 023°38'0 0.0
2018-Jan-18 04:00N 37°56' E 023°38'0 0.0
2018-Jan-18 03:30N 37°56' E 023°38'  
2018-Jan-11 16:42N 37°56' E 023°38'0 0.0
2018-Jan-11 16:30N 37°56' E 023°38'2 3.2
2018-Jan-11 16:00N 37°57' E 023°37'0 0.0
2018-Jan-11 15:30N 37°57' E 023°37'0 0.1
2018-Jan-11 15:01N 37°57' E 023°37'0 0.1
2018-Jan-11 14:30N 37°57' E 023°37'0 0.0
2018-Jan-11 14:00N 37°57' E 023°37'0 0.0
2018-Jan-11 13:30N 37°57' E 023°37'0 0.0
2018-Jan-11 13:00N 37°57' E 023°37'1 1.7
2018-Jan-11 12:31N 37°57' E 023°36'0 0.2
2018-Jan-11 12:00N 37°57' E 023°36'1 1.9
2018-Jan-11 11:30N 37°57' E 023°37'0 0.0
2018-Jan-11 11:00N 37°57' E 023°37'0 0.0
2018-Jan-11 10:30N 37°57' E 023°37'0 0.0
2018-Jan-11 10:00N 37°57' E 023°37'0 0.0
2018-Jan-11 09:30N 37°57' E 023°37'0 0.0
2018-Jan-11 09:00N 37°57' E 023°37'0 0.0
2018-Jan-11 08:30N 37°57' E 023°37'0 0.0
2018-Jan-11 08:00N 37°57' E 023°37'0 0.0
2018-Jan-11 07:30N 37°57' E 023°37'0 0.0
2018-Jan-11 07:00N 37°57' E 023°37'1 3.0
2018-Jan-11 06:30N 37°57' E 023°35'1 1.8
2018-Jan-11 06:00N 37°57' E 023°36'2 3.1
2018-Jan-11 05:31N 37°55' E 023°35'2 4.8
2018-Jan-11 05:01N 37°56' E 023°38'0 0.7
2018-Jan-11 04:30N 37°56' E 023°38'0 0.0
2018-Jan-11 04:00N 37°56' E 023°38'0 0.0
2018-Jan-11 03:30N 37°56' E 023°38'0 0.0
2018-Jan-10 14:35N 37°56' E 023°38'0 0.0
2018-Jan-10 14:30N 37°56' E 023°38'0 0.0
2018-Jan-10 14:00N 37°56' E 023°38'0 0.0
2018-Jan-10 13:31N 37°56' E 023°38'2 3.3
2018-Jan-10 13:00N 37°57' E 023°37'0 0.0
2018-Jan-10 12:30N 37°57' E 023°37'0 0.0
2018-Jan-10 12:00N 37°57' E 023°37'0 0.0
2018-Jan-10 11:30N 37°57' E 023°37'0 0.0
2018-Jan-10 11:00N 37°57' E 023°37'0 0.0
2018-Jan-10 10:30N 37°57' E 023°37'0 0.0
2018-Jan-10 10:00N 37°57' E 023°37'0 0.0
2018-Jan-10 09:30N 37°57' E 023°37'2 3.3
2018-Jan-10 09:01N 37°56' E 023°38'0 0.1
2018-Jan-10 08:30N 37°56' E 023°38'0 0.0
2018-Jan-10 08:00N 37°56' E 023°38'0 0.0
2018-Jan-10 07:30N 37°56' E 023°38'2 3.5
2018-Jan-10 07:00N 37°57' E 023°36'0 0.2
2018-Jan-10 06:30N 37°57' E 023°37'0 0.0
2018-Jan-10 06:00N 37°57' E 023°37'1 1.4
2018-Jan-10 05:31N 37°57' E 023°36'1 3.0
2018-Jan-10 05:01N 37°56' E 023°36'2 3.5
2018-Jan-10 04:30N 37°56' E 023°38'0 0.0
2018-Jan-10 04:00N 37°56' E 023°38'0 0.0
2018-Jan-10 03:29N 37°56' E 023°38'0 0.0
2018-Jan-09 13:12N 37°56' E 023°38'0 0.0
2018-Jan-09 13:00N 37°56' E 023°38'0 0.0
2018-Jan-09 12:31N 37°56' E 023°38'0 0.0
2018-Jan-09 12:00N 37°56' E 023°38'0 0.0
2018-Jan-09 11:30N 37°56' E 023°38'0 0.0
2018-Jan-09 11:00N 37°56' E 023°38'0 0.0
2018-Jan-09 10:30N 37°56' E 023°38'0 0.0
2018-Jan-09 10:00N 37°56' E 023°38'2 3.3
2018-Jan-09 09:30N 37°57' E 023°37'3 6.4
2018-Jan-09 09:00N 37°59' E 023°33'3 6.8
2018-Jan-09 08:30N 38°02' E 023°36'0 0.2
2018-Jan-09 08:00N 38°01' E 023°36'0 0.0
2018-Jan-09 07:30N 38°01' E 023°36'0 0.0
2018-Jan-09 07:00N 38°01' E 023°36'0 0.0
2018-Jan-09 06:30N 38°01' E 023°36'0 0.0
2018-Jan-09 06:00N 38°01' E 023°36'0 0.0
2018-Jan-09 05:30N 38°01' E 023°36'0 0.0
2018-Jan-09 05:00N 38°01' E 023°36'0 0.0
2018-Jan-09 04:30N 38°01' E 023°36'0 0.0
2018-Jan-09 04:00N 38°01' E 023°36'0 0.0
2018-Jan-09 03:30N 38°01' E 023°36'0 0.0
2018-Jan-09 03:00N 38°01' E 023°36'0 0.0
2018-Jan-09 02:30N 38°01' E 023°36'0 0.0
2018-Jan-09 02:00N 38°01' E 023°36'0 0.0
2018-Jan-09 01:30N 38°01' E 023°36'0 0.0
2018-Jan-09 01:00N 38°01' E 023°36'0 0.0
2018-Jan-09 00:30N 38°01' E 023°36'0 0.0
2018-Jan-09 00:00N 38°01' E 023°36'0 0.0
2018-Jan-08 23:30N 38°01' E 023°36'0 0.0
2018-Jan-08 23:00N 38°01' E 023°36'0 0.0
2018-Jan-08 22:30N 38°01' E 023°36'0 0.0
2018-Jan-08 22:00N 38°01' E 023°36'0 0.0
2018-Jan-08 21:30N 38°01' E 023°36'0 0.0
2018-Jan-08 21:00N 38°01' E 023°36'0 0.0
2018-Jan-08 20:30N 38°01' E 023°36'0 0.0
2018-Jan-08 20:00N 38°01' E 023°36'0 0.0
2018-Jan-08 19:30N 38°01' E 023°36'0 0.0
2018-Jan-08 19:00N 38°01' E 023°36'0 0.0
2018-Jan-08 18:30N 38°01' E 023°36'0 0.0
2018-Jan-08 18:00N 38°01' E 023°36'  
Track history (hours):
 
Tides and Currents Weather Stations Pressure Air Temp Water Temp Dewpoint Dewpoint Depression Visibility Wind Speed Wind Dir Waves Ship Positions

Vernicos Master

Last reported at 2018-Jan-18 17:30 UTC. Time now 2018-Jan-18 17:56 UTC.
Position N 37°56' E 023°38'.

Length 28 m; draft 3.8 m.

Type: Tug. MMSI: 240917000.

Date/timePositionNaut miles runAvg speedWind from/ knotsBaromVisibWave heightAir tempDewpointWater temp
2018-Jan-18 17:30N 37°56' E 023°38'0 0.0
2018-Jan-18 17:00N 37°56' E 023°38'0 0.3
2018-Jan-18 16:30N 37°56' E 023°38'0 0.0
2018-Jan-18 16:00N 37°56' E 023°38'0 0.0
2018-Jan-18 15:30N 37°56' E 023°38'0 0.0
2018-Jan-18 15:00N 37°56' E 023°38'0 0.0
2018-Jan-18 14:30N 37°56' E 023°38'0 0.0
2018-Jan-18 14:00N 37°56' E 023°38'0 0.0
2018-Jan-18 13:30N 37°56' E 023°38'0 0.0
2018-Jan-18 13:00N 37°56' E 023°38'0 0.0
2018-Jan-18 12:30N 37°56' E 023°38'0 0.0
2018-Jan-18 12:00N 37°56' E 023°38'1 1.2
2018-Jan-18 11:30N 37°56' E 023°37'2 3.6
2018-Jan-18 11:00N 37°57' E 023°35'1 2.3
2018-Jan-18 10:30N 37°57' E 023°37'0 0.0
2018-Jan-18 10:00N 37°57' E 023°37'0 0.0
2018-Jan-18 09:30N 37°57' E 023°37'0 0.3
2018-Jan-18 09:00N 37°57' E 023°36'1 1.9
2018-Jan-18 08:31N 37°57' E 023°35'1 2.6
2018-Jan-18 08:00N 37°56' E 023°35'1 2.9
2018-Jan-18 07:30N 37°57' E 023°36'1 1.0
2018-Jan-18 07:00N 37°57' E 023°35'0 0.1
2018-Jan-18 06:30N 37°57' E 023°35'2 4.2
2018-Jan-18 06:00N 37°56' E 023°38'0 0.5
2018-Jan-18 05:30N 37°56' E 023°38'0 0.0
2018-Jan-18 05:00N 37°56' E 023°38'0 0.0
2018-Jan-18 04:30N 37°56' E 023°38'0 0.0
2018-Jan-18 04:00N 37°56' E 023°38'0 0.0
2018-Jan-18 03:30N 37°56' E 023°38'  
2018-Jan-11 16:42N 37°56' E 023°38'0 0.0
2018-Jan-11 16:30N 37°56' E 023°38'2 3.2
2018-Jan-11 16:00N 37°57' E 023°37'0 0.0
2018-Jan-11 15:30N 37°57' E 023°37'0 0.1
2018-Jan-11 15:01N 37°57' E 023°37'0 0.1
2018-Jan-11 14:30N 37°57' E 023°37'0 0.0
2018-Jan-11 14:00N 37°57' E 023°37'0 0.0
2018-Jan-11 13:30N 37°57' E 023°37'0 0.0
2018-Jan-11 13:00N 37°57' E 023°37'1 1.7
2018-Jan-11 12:31N 37°57' E 023°36'0 0.2
2018-Jan-11 12:00N 37°57' E 023°36'1 1.9
2018-Jan-11 11:30N 37°57' E 023°37'0 0.0
2018-Jan-11 11:00N 37°57' E 023°37'0 0.0
2018-Jan-11 10:30N 37°57' E 023°37'0 0.0
2018-Jan-11 10:00N 37°57' E 023°37'0 0.0
2018-Jan-11 09:30N 37°57' E 023°37'0 0.0
2018-Jan-11 09:00N 37°57' E 023°37'0 0.0
2018-Jan-11 08:30N 37°57' E 023°37'0 0.0
2018-Jan-11 08:00N 37°57' E 023°37'0 0.0
2018-Jan-11 07:30N 37°57' E 023°37'0 0.0
2018-Jan-11 07:00N 37°57' E 023°37'1 3.0
2018-Jan-11 06:30N 37°57' E 023°35'1 1.8
2018-Jan-11 06:00N 37°57' E 023°36'2 3.1
2018-Jan-11 05:31N 37°55' E 023°35'2 4.8
2018-Jan-11 05:01N 37°56' E 023°38'0 0.7
2018-Jan-11 04:30N 37°56' E 023°38'0 0.0
2018-Jan-11 04:00N 37°56' E 023°38'0 0.0
2018-Jan-11 03:30N 37°56' E 023°38'0 0.0
2018-Jan-10 14:35N 37°56' E 023°38'0 0.0
2018-Jan-10 14:30N 37°56' E 023°38'0 0.0
2018-Jan-10 14:00N 37°56' E 023°38'0 0.0
2018-Jan-10 13:31N 37°56' E 023°38'2 3.3
2018-Jan-10 13:00N 37°57' E 023°37'0 0.0
2018-Jan-10 12:30N 37°57' E 023°37'0 0.0
2018-Jan-10 12:00N 37°57' E 023°37'0 0.0
2018-Jan-10 11:30N 37°57' E 023°37'0 0.0
2018-Jan-10 11:00N 37°57' E 023°37'0 0.0
2018-Jan-10 10:30N 37°57' E 023°37'0 0.0
2018-Jan-10 10:00N 37°57' E 023°37'0 0.0
2018-Jan-10 09:30N 37°57' E 023°37'2 3.3
2018-Jan-10 09:01N 37°56' E 023°38'0 0.1
2018-Jan-10 08:30N 37°56' E 023°38'0 0.0
2018-Jan-10 08:00N 37°56' E 023°38'0 0.0
2018-Jan-10 07:30N 37°56' E 023°38'2 3.5
2018-Jan-10 07:00N 37°57' E 023°36'0 0.2
2018-Jan-10 06:30N 37°57' E 023°37'0 0.0
2018-Jan-10 06:00N 37°57' E 023°37'1 1.4
2018-Jan-10 05:31N 37°57' E 023°36'1 3.0
2018-Jan-10 05:01N 37°56' E 023°36'2 3.5
2018-Jan-10 04:30N 37°56' E 023°38'0 0.0
2018-Jan-10 04:00N 37°56' E 023°38'0 0.0
2018-Jan-10 03:29N 37°56' E 023°38'0 0.0
2018-Jan-09 13:12N 37°56' E 023°38'0 0.0
2018-Jan-09 13:00N 37°56' E 023°38'0 0.0
2018-Jan-09 12:31N 37°56' E 023°38'0 0.0
2018-Jan-09 12:00N 37°56' E 023°38'0 0.0
2018-Jan-09 11:30N 37°56' E 023°38'0 0.0
2018-Jan-09 11:00N 37°56' E 023°38'0 0.0
2018-Jan-09 10:30N 37°56' E 023°38'0 0.0
2018-Jan-09 10:00N 37°56' E 023°38'2 3.3
2018-Jan-09 09:30N 37°57' E 023°37'3 6.4
2018-Jan-09 09:00N 37°59' E 023°33'3 6.8
2018-Jan-09 08:30N 38°02' E 023°36'0 0.2
2018-Jan-09 08:00N 38°01' E 023°36'0 0.0
2018-Jan-09 07:30N 38°01' E 023°36'0 0.0
2018-Jan-09 07:00N 38°01' E 023°36'0 0.0
2018-Jan-09 06:30N 38°01' E 023°36'0 0.0
2018-Jan-09 06:00N 38°01' E 023°36'0 0.0
2018-Jan-09 05:30N 38°01' E 023°36'0 0.0
2018-Jan-09 05:00N 38°01' E 023°36'0 0.0
2018-Jan-09 04:30N 38°01' E 023°36'0 0.0
2018-Jan-09 04:00N 38°01' E 023°36'0 0.0
2018-Jan-09 03:30N 38°01' E 023°36'0 0.0
2018-Jan-09 03:00N 38°01' E 023°36'0 0.0
2018-Jan-09 02:30N 38°01' E 023°36'0 0.0
2018-Jan-09 02:00N 38°01' E 023°36'0 0.0
2018-Jan-09 01:30N 38°01' E 023°36'0 0.0
2018-Jan-09 01:00N 38°01' E 023°36'0 0.0
2018-Jan-09 00:30N 38°01' E 023°36'0 0.0
2018-Jan-09 00:00N 38°01' E 023°36'0 0.0
2018-Jan-08 23:30N 38°01' E 023°36'0 0.0
2018-Jan-08 23:00N 38°01' E 023°36'0 0.0
2018-Jan-08 22:30N 38°01' E 023°36'0 0.0
2018-Jan-08 22:00N 38°01' E 023°36'0 0.0
2018-Jan-08 21:30N 38°01' E 023°36'0 0.0
2018-Jan-08 21:00N 38°01' E 023°36'0 0.0
2018-Jan-08 20:30N 38°01' E 023°36'0 0.0
2018-Jan-08 20:00N 38°01' E 023°36'0 0.0
2018-Jan-08 19:30N 38°01' E 023°36'0 0.0
2018-Jan-08 19:00N 38°01' E 023°36'0 0.0
2018-Jan-08 18:30N 38°01' E 023°36'0 0.0
2018-Jan-08 18:00N 38°01' E 023°36'  

Dump ship's entire track history